createdAt,value
2017-10-15T00:01:58.802Z,13.83
2017-10-15T00:04:25.167Z,9.15
2017-10-15T00:06:51.578Z,7.35
2017-10-15T00:09:18.007Z,14.30
2017-10-15T00:11:45.123Z,7.62
2017-10-15T00:14:11.515Z,10.32
2017-10-15T00:16:37.920Z,7.05
2017-10-15T00:19:04.319Z,8.70
2017-10-15T00:21:30.783Z,7.00
2017-10-15T00:23:57.199Z,7.73
2017-10-15T00:26:23.651Z,6.47
2017-10-15T00:28:50.108Z,7.25
2017-10-15T00:31:16.471Z,6.68
2017-10-15T00:33:43.611Z,7.17
2017-10-15T00:36:09.978Z,6.17
2017-10-15T00:38:36.415Z,8.25
2017-10-15T00:41:02.844Z,6.70
2017-10-15T00:43:29.273Z,8.02
2017-10-15T00:45:55.659Z,7.37
2017-10-15T00:48:22.100Z,9.35
2017-10-15T00:50:48.519Z,7.90
2017-10-15T00:53:14.926Z,8.85
2017-10-15T00:55:41.371Z,10.00
2017-10-15T00:58:08.543Z,9.30
2017-10-15T01:00:35.023Z,7.50
2017-10-15T01:03:01.519Z,5.97
2017-10-15T01:05:27.979Z,7.30
2017-10-15T01:07:55.503Z,7.57
2017-10-15T01:10:22.699Z,6.12
2017-10-15T01:12:49.093Z,5.93
2017-10-15T01:15:15.500Z,7.12
2017-10-15T01:17:41.915Z,9.80
2017-10-15T01:20:08.344Z,6.32
2017-10-15T01:22:34.794Z,8.35
2017-10-15T01:25:02.215Z,7.00
2017-10-15T01:27:28.627Z,9.85
2017-10-15T01:29:56.132Z,17.50
2017-10-15T01:32:23.286Z,6.00
2017-10-15T01:34:49.739Z,6.15
2017-10-15T01:37:16.137Z,9.00
2017-10-15T01:39:42.533Z,6.07
2017-10-15T01:42:08.903Z,5.68
2017-10-15T01:44:36.140Z,5.47
2017-10-15T01:47:02.559Z,6.00
2017-10-15T01:49:29.036Z,9.32
2017-10-15T01:51:55.512Z,4.82
2017-10-15T01:54:22.692Z,7.20
2017-10-15T01:56:50.149Z,6.93
2017-10-15T01:59:18.082Z,6.28
2017-10-15T02:01:44.520Z,6.40
2017-10-15T02:04:10.887Z,7.97
2017-10-15T02:06:38.325Z,5.60
2017-10-15T02:09:05.459Z,8.05
2017-10-15T02:11:32.607Z,7.93
2017-10-15T02:13:59.044Z,8.00
2017-10-15T02:16:25.485Z,8.75
2017-10-15T02:18:51.872Z,7.18
2017-10-15T02:21:18.304Z,6.85
2017-10-15T02:23:44.719Z,8.05
2017-10-15T02:26:11.111Z,10.00
2017-10-15T02:28:37.538Z,5.47
2017-10-15T02:31:03.955Z,6.47
2017-10-15T02:33:30.407Z,6.60
2017-10-15T02:35:56.825Z,5.75
2017-10-15T02:38:23.187Z,5.03
2017-10-15T02:40:49.595Z,7.07
2017-10-15T02:43:16.767Z,6.20
2017-10-15T02:45:43.184Z,6.47
2017-10-15T02:48:09.606Z,7.90
2017-10-15T02:50:36.032Z,6.15
2017-10-15T02:53:02.411Z,11.82
2017-10-15T02:55:28.816Z,7.95
2017-10-15T02:57:55.211Z,10.27
2017-10-15T03:00:21.619Z,4.85
2017-10-15T03:02:47.997Z,5.10
2017-10-15T03:05:14.435Z,7.00
2017-10-15T03:07:40.815Z,6.78
2017-10-15T03:10:07.227Z,6.25
2017-10-15T03:12:33.584Z,4.53
2017-10-15T03:14:59.971Z,6.40
2017-10-15T03:17:26.363Z,9.73
2017-10-15T03:19:53.504Z,4.95
2017-10-15T03:22:20.647Z,5.47
2017-10-15T03:24:47.042Z,7.12
2017-10-15T03:27:13.519Z,5.75
2017-10-15T03:29:39.887Z,5.43
2017-10-15T03:32:07.010Z,6.45
2017-10-15T03:34:34.150Z,5.30
2017-10-15T03:37:02.337Z,6.35
2017-10-15T03:39:28.718Z,7.28
2017-10-15T03:41:55.175Z,7.68
2017-10-15T03:44:21.559Z,6.03
2017-10-15T03:46:47.903Z,6.25
2017-10-15T03:49:14.343Z,7.00
2017-10-15T03:51:40.732Z,5.90
2017-10-15T03:54:07.183Z,7.40
2017-10-15T03:56:33.575Z,8.98
2017-10-15T03:58:59.968Z,6.15
2017-10-15T04:01:27.079Z,9.63
2017-10-15T04:03:53.503Z,11.38
2017-10-15T04:06:19.889Z,8.63
2017-10-15T04:08:47.293Z,7.50
2017-10-15T04:11:13.679Z,6.12
2017-10-15T04:13:40.819Z,8.70
2017-10-15T04:16:07.215Z,10.80
2017-10-15T04:18:34.723Z,11.35
2017-10-15T04:21:01.121Z,10.45
2017-10-15T04:23:27.559Z,9.32
2017-10-15T04:25:53.955Z,6.82
2017-10-15T04:28:20.370Z,10.52
2017-10-15T04:30:46.732Z,7.00
2017-10-15T04:33:13.843Z,6.40
2017-10-15T04:35:40.198Z,5.70
2017-10-15T04:38:07.328Z,10.70
2017-10-15T04:40:33.748Z,6.60
2017-10-15T04:43:00.140Z,8.05
2017-10-15T04:45:26.492Z,7.20
2017-10-15T04:47:52.919Z,7.35
2017-10-15T04:50:19.283Z,8.45
2017-10-15T04:52:46.699Z,10.05
2017-10-15T04:55:13.112Z,5.55
2017-10-15T04:57:39.523Z,8.27
2017-10-15T05:00:05.951Z,5.78
2017-10-15T05:02:32.335Z,9.35
2017-10-15T05:04:59.519Z,9.40
2017-10-15T05:07:25.930Z,11.90
2017-10-15T05:09:52.343Z,7.68
2017-10-15T05:12:18.731Z,7.30
2017-10-15T05:14:45.092Z,9.40
2017-10-15T05:17:11.499Z,6.68
2017-10-15T05:19:37.920Z,10.68
2017-10-15T05:22:04.312Z,7.87
2017-10-15T05:24:30.691Z,11.35
2017-10-15T05:26:57.107Z,9.63
2017-10-15T05:29:24.225Z,14.45
2017-10-15T05:31:51.383Z,15.70
2017-10-15T05:34:17.743Z,12.43
2017-10-15T05:36:44.164Z,12.55
2017-10-15T05:39:10.555Z,13.62
2017-10-15T05:41:36.943Z,12.40
2017-10-15T05:44:04.067Z,12.13
2017-10-15T05:46:30.471Z,10.65
2017-10-15T05:48:56.845Z,12.48
2017-10-15T05:51:23.227Z,11.48
2017-10-15T05:53:49.715Z,15.00
2017-10-15T05:56:16.107Z,11.93
2017-10-15T05:58:43.385Z,12.98
2017-10-15T06:01:10.518Z,14.98
2017-10-15T06:03:36.945Z,19.42
2017-10-15T06:06:04.122Z,15.60
2017-10-15T06:08:30.547Z,19.75
2017-10-15T06:10:56.946Z,13.75
2017-10-15T06:13:23.328Z,13.77
2017-10-15T06:15:50.463Z,15.77
2017-10-15T06:18:16.795Z,16.83
2017-10-15T06:20:43.244Z,14.23
2017-10-15T06:23:09.667Z,17.92
2017-10-15T06:25:36.015Z,18.75
2017-10-15T06:28:02.459Z,17.20
2017-10-15T06:30:28.803Z,19.52
2017-10-15T06:32:55.155Z,26.70
2017-10-15T06:35:21.523Z,16.35
2017-10-15T06:37:47.887Z,23.60
2017-10-15T06:40:15.039Z,36.03
2017-10-15T06:42:42.159Z,40.10
2017-10-15T06:45:08.653Z,30.33
2017-10-15T06:47:35.056Z,38.17
2017-10-15T06:50:01.468Z,45.63
2017-10-15T06:52:27.859Z,43.20
2017-10-15T06:54:54.227Z,44.63
2017-10-15T06:57:20.641Z,42.75
2017-10-15T06:59:47.795Z,49.70
2017-10-15T07:02:14.176Z,48.72
2017-10-15T07:04:40.585Z,51.33
2017-10-15T07:07:06.995Z,44.63
2017-10-15T07:09:33.363Z,40.88
2017-10-15T07:12:00.515Z,34.22
2017-10-15T07:14:26.926Z,38.30
2017-10-15T07:16:54.059Z,42.10
2017-10-15T07:19:21.193Z,45.83
2017-10-15T07:21:47.608Z,49.53
2017-10-15T07:24:14.683Z,57.33
2017-10-15T07:26:41.059Z,28.23
2017-10-15T07:29:07.463Z,31.20
2017-10-15T07:31:34.612Z,26.33
2017-10-15T07:34:01.057Z,32.93
2017-10-15T07:36:27.475Z,31.17
2017-10-15T07:38:53.901Z,27.53
2017-10-15T07:41:20.274Z,22.70
2017-10-15T07:43:46.692Z,26.30
2017-10-15T07:46:13.845Z,18.50
2017-10-15T07:48:40.239Z,17.47
2017-10-15T07:51:07.391Z,22.67
2017-10-15T07:53:33.772Z,17.60
2017-10-15T07:56:00.180Z,18.33
2017-10-15T07:58:26.559Z,22.50
2017-10-15T08:00:52.950Z,28.50
2017-10-15T08:03:20.085Z,20.47
2017-10-15T08:05:46.517Z,21.47
2017-10-15T08:08:12.896Z,16.57
2017-10-15T08:10:40.047Z,19.70
2017-10-15T08:13:06.392Z,17.80
2017-10-15T08:15:32.819Z,14.80
2017-10-15T08:17:59.221Z,14.90
2017-10-15T08:20:25.632Z,15.30
2017-10-15T08:22:52.029Z,13.97
2017-10-15T08:25:18.427Z,21.13
2017-10-15T08:27:45.575Z,15.90
2017-10-15T08:30:11.999Z,19.47
2017-10-15T08:32:38.443Z,14.10
2017-10-15T08:35:04.888Z,13.20
2017-10-15T08:37:31.289Z,17.00
2017-10-15T08:39:57.696Z,14.17
2017-10-15T08:42:24.110Z,14.57
2017-10-15T08:44:50.551Z,21.90
2017-10-15T08:47:17.667Z,31.07
2017-10-15T08:49:44.072Z,32.47
2017-10-15T08:52:10.544Z,26.53
2017-10-15T08:54:37.695Z,36.90
2017-10-15T08:57:04.835Z,45.13
2017-10-15T08:59:31.235Z,45.03
2017-10-15T09:01:58.392Z,52.90
2017-10-15T09:04:24.833Z,64.63
2017-10-15T09:06:51.183Z,53.60
2017-10-15T09:09:17.580Z,59.73
2017-10-15T09:11:43.967Z,54.43
2017-10-15T09:14:10.395Z,68.67
2017-10-15T09:16:36.747Z,52.63
2017-10-15T09:19:03.148Z,95.77
2017-10-15T09:21:29.537Z,59.50
2017-10-15T09:23:56.019Z,63.87
2017-10-15T09:26:23.691Z,67.57
2017-10-15T09:28:50.051Z,62.57
2017-10-15T09:31:16.467Z,71.83
2017-10-15T09:33:42.865Z,79.27
2017-10-15T09:36:09.207Z,106.73
2017-10-15T09:38:35.645Z,86.00
2017-10-15T09:41:02.024Z,94.63
2017-10-15T09:43:28.423Z,79.13
2017-10-15T09:45:54.836Z,91.77
2017-10-15T09:48:21.218Z,111.83
2017-10-15T09:50:48.637Z,94.03
2017-10-15T09:53:15.036Z,88.20
2017-10-15T09:55:41.444Z,83.20
2017-10-15T09:58:07.883Z,83.40
2017-10-15T10:00:34.288Z,84.83
2017-10-15T10:03:00.833Z,87.47
2017-10-15T10:05:27.972Z,90.03
2017-10-15T10:07:55.087Z,93.33
2017-10-15T10:10:21.474Z,82.87
2017-10-15T10:12:47.868Z,96.43
2017-10-15T10:15:14.227Z,101.57
2017-10-15T10:17:40.641Z,98.70
2017-10-15T10:20:07.099Z,87.97
2017-10-15T10:22:34.249Z,88.00
2017-10-15T10:25:00.682Z,87.47
2017-10-15T10:27:27.048Z,80.70
2017-10-15T10:29:53.443Z,83.57
2017-10-15T10:32:19.838Z,88.00
2017-10-15T10:34:46.218Z,71.23
2017-10-15T10:37:14.472Z,60.63
2017-10-15T10:39:40.855Z,57.50
2017-10-15T10:42:07.279Z,56.50
2017-10-15T10:44:33.676Z,50.03
2017-10-15T10:47:00.051Z,56.57
2017-10-15T10:49:27.163Z,54.10
2017-10-15T10:51:54.344Z,45.93
2017-10-15T10:54:20.807Z,47.40
2017-10-15T10:56:47.229Z,43.63
2017-10-15T10:59:14.376Z,44.87
2017-10-15T11:01:40.795Z,49.37
2017-10-15T11:04:07.207Z,44.67
2017-10-15T11:06:33.576Z,47.77
2017-10-15T11:08:59.995Z,45.57
2017-10-15T11:11:26.375Z,45.90
2017-10-15T11:13:52.758Z,46.47
2017-10-15T11:16:19.955Z,51.00
2017-10-15T11:18:46.459Z,53.63
2017-10-15T11:21:12.904Z,58.57
2017-10-15T11:23:40.121Z,65.30
2017-10-15T11:26:06.540Z,56.93
2017-10-15T11:28:32.929Z,62.97
2017-10-15T11:31:00.116Z,59.27
2017-10-15T11:33:26.603Z,57.67
2017-10-15T11:35:52.959Z,52.87
2017-10-15T11:38:19.384Z,59.80
2017-10-15T11:40:47.120Z,44.90
2017-10-15T11:43:13.635Z,41.73
2017-10-15T11:45:40.836Z,47.90
2017-10-15T11:48:07.335Z,47.67
2017-10-15T11:50:33.874Z,42.20
2017-10-15T11:53:00.335Z,54.90
2017-10-15T11:55:27.780Z,45.90
2017-10-15T11:57:54.273Z,44.70
2017-10-15T12:00:20.715Z,52.80
2017-10-15T12:02:47.877Z,49.20
2017-10-15T12:05:14.430Z,43.77
2017-10-15T12:07:42.725Z,42.83
2017-10-15T12:10:09.131Z,48.10
2017-10-15T12:12:35.724Z,40.20
2017-10-15T12:15:02.264Z,50.75
2017-10-15T12:17:28.919Z,51.00
2017-10-15T12:19:55.340Z,46.57
2017-10-15T12:22:22.792Z,48.87
2017-10-15T12:24:49.372Z,51.73
2017-10-15T12:27:16.042Z,45.63
2017-10-15T12:29:42.642Z,44.73
2017-10-15T12:32:09.147Z,43.40
2017-10-15T12:34:35.744Z,42.20
2017-10-15T12:37:02.477Z,51.17
2017-10-15T12:39:29.277Z,43.53
2017-10-15T12:41:55.874Z,43.90
2017-10-15T12:44:23.098Z,49.53
2017-10-15T12:46:49.498Z,45.73
2017-10-15T12:49:16.198Z,49.73
2017-10-15T12:51:43.867Z,47.77
2017-10-15T12:54:10.643Z,48.33
2017-10-15T12:56:37.497Z,54.33
2017-10-15T12:59:04.579Z,46.93
2017-10-15T13:01:31.551Z,48.10
2017-10-15T13:03:58.268Z,48.23
2017-10-15T13:06:25.268Z,44.70
2017-10-15T13:08:52.159Z,46.50
2017-10-15T13:11:19.358Z,44.03
2017-10-15T13:13:46.765Z,51.00
2017-10-15T13:16:13.503Z,49.37
2017-10-15T13:18:40.276Z,48.70
2017-10-15T13:21:07.071Z,42.77
2017-10-15T13:23:34.260Z,43.63
2017-10-15T13:26:01.759Z,48.37
2017-10-15T13:28:28.918Z,46.23
2017-10-15T13:30:55.654Z,55.03
2017-10-15T13:33:22.247Z,45.23
2017-10-15T13:35:48.840Z,44.70
2017-10-15T13:38:15.463Z,58.50
2017-10-15T13:40:42.026Z,56.67
2017-10-15T13:43:08.555Z,57.87
2017-10-15T13:45:36.204Z,61.17
2017-10-15T13:48:02.738Z,57.13
2017-10-15T13:50:29.280Z,52.97
2017-10-15T13:52:56.109Z,58.50
2017-10-15T13:55:22.622Z,60.07
2017-10-15T13:57:49.081Z,54.23
2017-10-15T14:00:15.655Z,56.97
2017-10-15T14:02:42.553Z,50.33
2017-10-15T14:05:09.328Z,54.87
2017-10-15T14:07:35.843Z,65.50
2017-10-15T14:10:02.827Z,61.00
2017-10-15T14:12:30.776Z,53.17
2017-10-15T14:14:57.703Z,52.47
2017-10-15T14:17:24.605Z,60.80
2017-10-15T14:19:52.324Z,53.47
2017-10-15T14:22:19.971Z,56.20
2017-10-15T14:24:47.090Z,56.53
2017-10-15T14:27:14.972Z,56.23
2017-10-15T14:29:42.319Z,66.30
2017-10-15T14:32:09.619Z,65.23
2017-10-15T14:34:36.943Z,72.20
2017-10-15T14:37:04.953Z,67.00
2017-10-15T14:39:32.766Z,56.17
2017-10-15T14:42:00.530Z,59.07
2017-10-15T14:44:27.386Z,68.57
2017-10-15T14:46:54.672Z,62.40
2017-10-15T14:49:21.341Z,62.23
2017-10-15T14:51:48.595Z,58.83
2017-10-15T14:54:15.449Z,68.33
2017-10-15T14:56:42.341Z,62.30
2017-10-15T14:59:09.202Z,56.87
2017-10-15T15:01:36.195Z,67.60
2017-10-15T15:04:03.798Z,60.23
2017-10-15T15:06:30.580Z,60.50
2017-10-15T15:08:57.349Z,58.93
2017-10-15T15:11:24.707Z,60.20
2017-10-15T15:13:51.469Z,57.27
2017-10-15T15:16:18.475Z,62.57
2017-10-15T15:18:45.045Z,65.03
2017-10-15T15:21:12.236Z,52.07
2017-10-15T15:23:38.636Z,62.80
2017-10-15T15:26:05.351Z,62.70
2017-10-15T15:28:32.265Z,49.40
2017-10-15T15:30:59.029Z,63.67
2017-10-15T15:33:26.390Z,53.77
2017-10-15T15:35:54.352Z,53.17
2017-10-15T15:38:21.089Z,56.20
2017-10-15T15:40:47.962Z,57.63
2017-10-15T15:43:14.745Z,53.07
2017-10-15T15:45:41.498Z,64.87
2017-10-15T15:48:08.685Z,55.07
2017-10-15T15:50:36.652Z,47.47
2017-10-15T15:53:03.862Z,53.53
2017-10-15T15:55:31.227Z,54.47
2017-10-15T15:57:59.508Z,55.90
2017-10-15T16:00:27.882Z,56.37
2017-10-15T16:02:55.246Z,62.07
2017-10-15T16:05:22.735Z,59.27
2017-10-15T16:07:50.260Z,56.00
2017-10-15T16:10:17.923Z,56.77
2017-10-15T16:12:45.904Z,58.63
2017-10-15T16:15:13.462Z,62.90
2017-10-15T16:17:40.993Z,71.97
2017-10-15T16:20:09.694Z,64.87
2017-10-15T16:22:37.155Z,57.30
2017-10-15T16:25:04.780Z,57.33
2017-10-15T16:27:32.069Z,66.00
2017-10-15T16:30:00.320Z,57.33
2017-10-15T16:32:28.478Z,56.37
2017-10-15T16:34:55.977Z,63.90
2017-10-15T16:37:23.773Z,55.83
2017-10-15T16:39:51.896Z,68.23
2017-10-15T16:42:19.715Z,57.70
2017-10-15T16:44:47.472Z,66.90
2017-10-15T16:47:15.258Z,53.47
2017-10-15T16:49:43.925Z,57.73
2017-10-15T16:52:11.819Z,50.50
2017-10-15T16:54:40.088Z,52.63
2017-10-15T16:57:07.937Z,56.67
2017-10-15T16:59:35.880Z,55.10
2017-10-15T17:02:03.877Z,60.43
2017-10-15T17:04:31.782Z,65.57
2017-10-15T17:06:59.680Z,60.67
2017-10-15T17:09:27.871Z,56.67
2017-10-15T17:11:55.883Z,60.27
2017-10-15T17:14:24.633Z,54.80
2017-10-15T17:16:53.422Z,58.10
2017-10-15T17:19:22.074Z,62.70
2017-10-15T17:21:50.147Z,60.63
2017-10-15T17:24:18.149Z,59.47
2017-10-15T17:26:46.230Z,51.17
2017-10-15T17:29:14.216Z,54.90
2017-10-15T17:31:42.957Z,51.60
2017-10-15T17:34:11.037Z,58.90
2017-10-15T17:36:39.758Z,57.47
2017-10-15T17:39:08.902Z,54.70
2017-10-15T17:41:36.789Z,52.70
2017-10-15T17:44:05.119Z,52.67
2017-10-15T17:46:33.271Z,56.63
2017-10-15T17:49:01.161Z,66.53
2017-10-15T17:51:29.074Z,50.47
2017-10-15T17:53:57.911Z,59.23
2017-10-15T17:56:26.006Z,59.40
2017-10-15T17:58:55.882Z,60.40
2017-10-15T18:01:24.626Z,58.90
2017-10-15T18:03:52.539Z,62.27
2017-10-15T18:06:20.569Z,53.00
2017-10-15T18:08:48.639Z,52.77
2017-10-15T18:11:16.605Z,55.27
2017-10-15T18:13:44.605Z,49.07
2017-10-15T18:16:13.322Z,55.40
2017-10-15T18:18:41.432Z,47.20
2017-10-15T18:21:09.345Z,50.07
2017-10-15T18:23:37.291Z,48.10
2017-10-15T18:26:05.517Z,43.83
2017-10-15T18:28:34.283Z,49.67
2017-10-15T18:31:03.034Z,39.83
2017-10-15T18:33:31.089Z,51.60
2017-10-15T18:35:58.954Z,46.50
2017-10-15T18:38:27.690Z,43.20
2017-10-15T18:40:55.709Z,40.50
2017-10-15T18:43:23.767Z,42.67
2017-10-15T18:45:51.838Z,42.13
2017-10-15T18:48:19.978Z,38.23
2017-10-15T18:50:47.985Z,39.33
2017-10-15T18:53:17.283Z,49.20
2017-10-15T18:55:46.073Z,40.47
2017-10-15T18:58:14.138Z,44.77
2017-10-15T19:00:42.071Z,46.97
2017-10-15T19:03:10.923Z,42.97
2017-10-15T19:05:38.857Z,47.70
2017-10-15T19:08:06.857Z,42.00
2017-10-15T19:10:34.954Z,41.90
2017-10-15T19:13:02.983Z,40.57
2017-10-15T19:15:31.249Z,52.97
2017-10-15T19:17:59.442Z,42.83
2017-10-15T19:20:27.552Z,44.50
2017-10-15T19:22:55.589Z,46.57
2017-10-15T19:25:23.488Z,38.57
2017-10-15T19:27:52.429Z,47.77
2017-10-15T19:30:22.147Z,39.70
2017-10-15T19:32:50.212Z,39.80
2017-10-15T19:35:18.262Z,45.00
2017-10-15T19:37:46.337Z,36.43
2017-10-15T19:40:14.561Z,44.97
2017-10-15T19:42:42.559Z,40.43
2017-10-15T19:45:10.690Z,36.73
2017-10-15T19:47:38.552Z,42.30
2017-10-15T19:50:06.667Z,39.70
2017-10-15T19:52:34.682Z,35.30
2017-10-15T19:55:02.668Z,38.03
2017-10-15T19:57:30.605Z,40.27
2017-10-15T19:59:59.494Z,35.33
2017-10-15T20:02:27.397Z,39.17
2017-10-15T20:04:55.298Z,31.90
2017-10-15T20:07:23.799Z,38.87
2017-10-15T20:09:52.269Z,39.40
2017-10-15T20:12:20.342Z,36.00
2017-10-15T20:14:48.390Z,38.67
2017-10-15T20:17:16.278Z,41.33
2017-10-15T20:19:45.029Z,32.37
2017-10-15T20:22:13.062Z,35.03
2017-10-15T20:24:41.091Z,43.23
2017-10-15T20:27:09.123Z,34.93
2017-10-15T20:29:37.163Z,37.60
2017-10-15T20:32:05.182Z,43.10
2017-10-15T20:34:33.107Z,38.73
2017-10-15T20:37:01.213Z,34.20
2017-10-15T20:39:29.410Z,31.30
2017-10-15T20:41:57.495Z,37.50
2017-10-15T20:44:26.509Z,31.83
2017-10-15T20:46:55.624Z,35.67
2017-10-15T20:49:23.657Z,32.87
2017-10-15T20:51:52.401Z,35.72
2017-10-15T20:54:21.188Z,34.28
2017-10-15T20:56:49.879Z,36.10
2017-10-15T20:59:19.076Z,36.60
2017-10-15T21:01:47.090Z,35.37
2017-10-15T21:04:15.854Z,32.85
2017-10-15T21:06:43.810Z,41.33
2017-10-15T21:09:12.556Z,33.53
2017-10-15T21:11:40.535Z,32.35
2017-10-15T21:14:09.180Z,29.80
2017-10-15T21:16:37.929Z,32.33
2017-10-15T21:19:06.800Z,29.07
2017-10-15T21:21:35.986Z,29.83
2017-10-15T21:24:04.023Z,34.00
2017-10-15T21:26:31.767Z,31.60
2017-10-15T21:28:59.709Z,26.25
2017-10-15T21:31:27.676Z,34.93
2017-10-15T21:33:56.246Z,28.10
2017-10-15T21:36:24.080Z,24.90
2017-10-15T21:38:53.395Z,32.10
2017-10-15T21:41:22.960Z,27.70
2017-10-15T21:43:50.991Z,28.90
2017-10-15T21:46:17.746Z,27.85
2017-10-15T21:48:45.039Z,22.95
2017-10-15T21:51:11.560Z,29.25
2017-10-15T21:53:38.131Z,25.70
2017-10-15T21:56:04.822Z,26.92
2017-10-15T21:58:31.287Z,27.25
2017-10-15T22:00:57.731Z,23.80
2017-10-15T22:03:24.179Z,26.93
2017-10-15T22:05:50.603Z,29.40
2017-10-15T22:08:18.028Z,30.50
2017-10-15T22:10:44.408Z,23.87
2017-10-15T22:13:11.891Z,38.17
2017-10-15T22:15:38.276Z,32.08
2017-10-15T22:18:04.663Z,26.77
2017-10-15T22:20:37.945Z,27.60
2017-10-15T22:23:05.095Z,28.40
2017-10-15T22:25:32.587Z,27.75
2017-10-15T22:28:00.048Z,26.30
2017-10-15T22:30:26.435Z,26.73
2017-10-15T22:32:52.828Z,35.60
2017-10-15T22:35:20.063Z,31.85
2017-10-15T22:37:46.455Z,26.48
2017-10-15T22:40:12.885Z,28.58
2017-10-15T22:42:39.269Z,30.20
2017-10-15T22:45:05.732Z,30.85
2017-10-15T22:47:32.143Z,32.92
2017-10-15T22:49:58.575Z,32.90
2017-10-15T22:52:25.721Z,40.15
2017-10-15T22:54:52.172Z,36.17
2017-10-15T22:57:18.555Z,39.25
2017-10-15T22:59:44.927Z,34.53
2017-10-15T23:02:11.316Z,35.17
2017-10-15T23:04:37.688Z,39.58
2017-10-15T23:07:05.147Z,35.50
2017-10-15T23:09:31.556Z,32.93
2017-10-15T23:11:58.659Z,44.92
2017-10-15T23:14:26.534Z,38.15
2017-10-15T23:16:52.980Z,31.70
2017-10-15T23:19:19.371Z,27.00
2017-10-15T23:21:45.795Z,32.72
2017-10-15T23:24:12.179Z,31.60
2017-10-15T23:26:38.555Z,27.48
2017-10-15T23:29:04.907Z,25.48
2017-10-15T23:31:31.282Z,26.05
2017-10-15T23:33:57.739Z,28.40
2017-10-15T23:36:24.158Z,28.70
2017-10-15T23:38:50.603Z,23.02
2017-10-15T23:41:17.740Z,28.87
2017-10-15T23:43:44.851Z,25.95
2017-10-15T23:46:12.038Z,26.00
2017-10-15T23:48:38.429Z,32.42
2017-10-15T23:51:04.827Z,20.27
2017-10-15T23:53:31.236Z,24.08
2017-10-15T23:55:57.628Z,22.27
2017-10-15T23:58:24.048Z,29.17
